Terminal Aerodrome Forecast
Issued by NWS Twin Cities, MN

Home | Current Version | Previous Version | Text Only | Print | Product List | Glossary On
Versions: 1 2 3 4 5 6 7 8 9 10 11 12 13 14
000
FTUS43 KMPX 261736
TAFEAU
TAF
KEAU 261736Z 2618/2718 09005KT P6SM BKN110
     FM270100 11004KT P6SM SKC
     FM270900 12002KT 6SM BR FEW007
     FM271300 13008KT P6SM SCT250=

USA.gov is the U.S. government's official web portal to all federal, state and local government web resources and services.